This is the latest recevied weather packets stored in our database for station/object KC9Q. If no packets are shown the sender has not sent any weather packets the latest 10 day(s).
| Time | Temp. | Humidity | Pressure | Rain* | Wind** | Luminosity | Snow |
|---|---|---|---|---|---|---|---|
| 1777909394 | 24.44° C | 45% | 1010.2 hPa | 0 mm | - | 84 W/m² | - |
| 1777909092 | 23.89° C | 46% | 1010.2 hPa | 0 mm | - | 95 W/m² | - |
| 1777908789 | 23.89° C | 47% | 1010.2 hPa | 0 mm | - | 92 W/m² | - |
| 1777908486 | 23.89° C | 47% | 1010.3 hPa | 0 mm | - | 91 W/m² | - |
| 1777908183 | 23.89° C | 47% | 1010.5 hPa | 0 mm | - | 87 W/m² | - |
| 1777907879 | 23.33° C | 49% | 1010.3 hPa | 0 mm | - | 98 W/m² | - |
| 1777907575 | 23.33° C | 50% | 1010.5 hPa | 0 mm | - | 94 W/m² | - |
| 1777907270 | 22.78° C | 51% | 1010.3 hPa | 0 mm | - | 87 W/m² | - |
| 1777906967 | 22.78° C | 50% | 1010.4 hPa | 0 mm | - | 88 W/m² | - |
| 1777906665 | 22.78° C | 50% | 1010.4 hPa | 0 mm | - | 88 W/m² | - |
| 1777906361 | 22.22° C | 53% | 1010.7 hPa | 0 mm | - | 128 W/m² | - |
| 1777906058 | 22.22° C | 50% | 1010.7 hPa | 0 mm | - | 103 W/m² | - |
| 1777905754 | 22.22° C | 51% | 1010.6 hPa | 0 mm | - | 96 W/m² | - |
| 1777905452 | 22.22° C | 52% | 1010.7 hPa | 0 mm | - | 118 W/m² | - |
| 1777905149 | 21.67° C | 53% | 1010.5 hPa | 0 mm | - | 103 W/m² | - |
| 1777904846 | 21.67° C | 54% | 1010.7 hPa | 0 mm | - | 88 W/m² | - |
| 1777904543 | 21.67° C | 54% | 1010.9 hPa | 0 mm | - | 84 W/m² | - |
| 1777904240 | 21.11° C | 57% | 1010.7 hPa | 0 mm | - | 172 W/m² | - |
| 1777903937 | 21.11° C | 57% | 1010.7 hPa | 0 mm | - | 94 W/m² | - |
| 1777903634 | 20.56° C | 57% | 1010.7 hPa | 0 mm | - | 109 W/m² | - |
| 1777903329 | 20.56° C | 58% | 1010.9 hPa | 0 mm | - | 141 W/m² | - |
| 1777903026 | 20.56° C | 59% | 1010.7 hPa | 0 mm | - | 93 W/m² | - |
| 1777902723 | 20.56° C | 60% | 1010.7 hPa | 0 mm | - | 98 W/m² | - |
| 1777902420 | 20° C | 59% | 1010.9 hPa | 0 mm | - | 115 W/m² | - |
| 1777902116 | 20° C | 61% | 1011 hPa | 0 mm | - | 164 W/m² | - |
* Rain latest hour (hover to see other rain measurements)
** Current wind speed in m/s (hover to see current wind gust speed)